createdAt,value
2019-01-27T00:00:32.990Z,77.39
2019-01-27T00:01:33.131Z,77.48
2019-01-27T00:02:33.275Z,77.39
2019-01-27T00:03:33.419Z,77.39
2019-01-27T00:04:33.565Z,77.01
2019-01-27T00:05:33.710Z,77.11
2019-01-27T00:06:33.860Z,76.34
2019-01-27T00:07:34.001Z,76.15
2019-01-27T00:08:34.146Z,76.15
2019-01-27T00:09:34.294Z,75.40
2019-01-27T00:10:34.514Z,75.87
2019-01-27T00:11:34.595Z,75.49
2019-01-27T00:12:34.739Z,74.73
2019-01-27T00:13:34.884Z,74.92
2019-01-27T00:14:35.033Z,74.54
2019-01-27T00:15:35.173Z,74.64
2019-01-27T00:16:35.317Z,75.21
2019-01-27T00:17:35.461Z,75.02
2019-01-27T00:18:35.606Z,75.40
2019-01-27T00:19:35.755Z,75.68
2019-01-27T00:20:35.896Z,75.21
2019-01-27T00:21:36.039Z,75.59
2019-01-27T00:22:36.184Z,75.96
2019-01-27T00:23:36.327Z,76.34
2019-01-27T00:24:36.472Z,77.20
2019-01-27T00:25:36.619Z,76.63
2019-01-27T00:26:36.762Z,76.15
2019-01-27T00:27:36.906Z,75.31
2019-01-27T00:28:37.050Z,75.49
2019-01-27T00:29:37.192Z,75.49
2019-01-27T00:30:37.338Z,74.92
2019-01-27T00:31:37.487Z,75.02
2019-01-27T00:32:37.630Z,74.16
2019-01-27T00:33:37.773Z,74.16
2019-01-27T00:34:37.918Z,74.73
2019-01-27T00:35:38.064Z,74.73
2019-01-27T00:36:38.215Z,75.11
2019-01-27T00:37:38.356Z,74.35
2019-01-27T00:38:38.500Z,74.83
2019-01-27T00:39:38.647Z,74.16
2019-01-27T00:40:38.792Z,74.54
2019-01-27T00:41:38.938Z,74.16
2019-01-27T00:42:39.081Z,73.69
2019-01-27T00:43:39.226Z,73.41
2019-01-27T00:44:39.402Z,73.31
2019-01-27T00:45:39.545Z,73.41
2019-01-27T00:46:39.691Z,73.60
2019-01-27T00:47:39.835Z,73.79
2019-01-27T00:48:39.980Z,73.97
2019-01-27T00:49:40.123Z,74.26
2019-01-27T00:50:40.268Z,73.88
2019-01-27T00:51:40.414Z,74.35
2019-01-27T00:52:40.569Z,74.26
2019-01-27T00:53:40.714Z,75.11
2019-01-27T00:54:40.860Z,74.92
2019-01-27T00:55:41.006Z,75.02
2019-01-27T00:56:41.152Z,74.54
2019-01-27T00:57:41.297Z,75.31
2019-01-27T00:58:41.441Z,75.21
2019-01-27T00:59:41.584Z,75.78
2019-01-27T01:00:41.729Z,75.49
2019-01-27T01:01:41.875Z,75.78
2019-01-27T01:02:42.019Z,75.96
2019-01-27T01:03:42.165Z,75.96
2019-01-27T01:04:42.310Z,76.82
2019-01-27T01:05:42.454Z,76.25
2019-01-27T01:06:42.599Z,76.25
2019-01-27T01:07:42.743Z,75.59
2019-01-27T01:08:42.889Z,75.31
2019-01-27T01:09:43.035Z,75.40
2019-01-27T01:10:43.181Z,74.83
2019-01-27T01:11:43.327Z,74.92
2019-01-27T01:12:43.470Z,74.83
2019-01-27T01:13:43.619Z,75.02
2019-01-27T01:14:43.761Z,75.11
2019-01-27T01:15:43.906Z,75.11
2019-01-27T01:16:44.049Z,75.05
2019-01-27T01:17:44.198Z,75.40
2019-01-27T01:18:44.341Z,74.92
2019-01-27T01:19:44.484Z,74.73
2019-01-27T01:20:44.630Z,75.59
2019-01-27T01:21:44.773Z,75.59
2019-01-27T01:22:44.919Z,75.31
2019-01-27T01:23:45.063Z,76.15
2019-01-27T01:24:45.207Z,75.78
2019-01-27T01:25:45.350Z,75.31
2019-01-27T01:26:45.496Z,75.31
2019-01-27T01:27:45.641Z,75.78
2019-01-27T01:28:45.786Z,75.31
2019-01-27T01:29:45.932Z,75.40
2019-01-27T01:30:46.079Z,75.31
2019-01-27T01:31:46.224Z,75.31
2019-01-27T01:32:46.369Z,75.68
2019-01-27T01:33:46.514Z,75.31
2019-01-27T01:34:46.654Z,75.96
2019-01-27T01:35:46.803Z,76.25
2019-01-27T01:36:46.948Z,76.73
2019-01-27T01:37:47.090Z,76.86
2019-01-27T01:38:47.235Z,76.63
2019-01-27T01:39:47.381Z,77.81
2019-01-27T01:40:48.029Z,77.52
2019-01-27T01:41:47.668Z,77.33
2019-01-27T01:42:47.815Z,78.19
2019-01-27T01:43:47.949Z,77.58
2019-01-27T01:44:48.089Z,78.00
2019-01-27T01:45:48.236Z,78.66
2019-01-27T01:46:48.383Z,78.66
2019-01-27T01:47:48.527Z,78.66
2019-01-27T01:48:48.676Z,78.56
2019-01-27T01:49:48.817Z,78.66
2019-01-27T01:50:48.964Z,78.56
2019-01-27T01:51:49.110Z,78.66
2019-01-27T01:52:49.257Z,79.23
2019-01-27T01:53:49.397Z,79.71
2019-01-27T01:54:49.541Z,80.56
2019-01-27T01:55:49.684Z,81.04
2019-01-27T01:56:49.826Z,80.65
2019-01-27T01:57:49.968Z,80.18
2019-01-27T01:58:50.114Z,80.46
2019-01-27T01:59:50.257Z,80.27
2019-01-27T02:00:50.403Z,80.18
2019-01-27T02:01:50.549Z,80.46
2019-01-27T02:02:50.693Z,80.37
2019-01-27T02:03:50.840Z,80.75
2019-01-27T02:04:50.985Z,80.65
2019-01-27T02:05:51.129Z,80.94
2019-01-27T02:06:51.275Z,80.84
2019-01-27T02:07:51.416Z,81.32
2019-01-27T02:08:51.562Z,80.65
2019-01-27T02:09:51.705Z,80.94
2019-01-27T02:10:51.850Z,81.04
2019-01-27T02:11:51.995Z,80.56
2019-01-27T02:12:52.141Z,80.65
2019-01-27T02:13:52.285Z,80.84
2019-01-27T02:14:52.435Z,80.94
2019-01-27T02:15:52.580Z,80.18
2019-01-27T02:16:52.722Z,79.71
2019-01-27T02:17:52.869Z,79.14
2019-01-27T02:18:53.010Z,78.85
2019-01-27T02:19:53.158Z,78.66
2019-01-27T02:20:53.300Z,77.71
2019-01-27T02:21:53.445Z,78.75
2019-01-27T02:22:53.591Z,78.85
2019-01-27T02:23:53.739Z,78.66
2019-01-27T02:24:53.888Z,78.85
2019-01-27T02:25:54.025Z,79.61
2019-01-27T02:26:54.172Z,79.14
2019-01-27T02:27:54.315Z,79.71
2019-01-27T02:28:54.461Z,79.90
2019-01-27T02:29:54.607Z,80.46
2019-01-27T02:30:54.752Z,80.65
2019-01-27T02:31:54.897Z,81.79
2019-01-27T02:32:55.042Z,81.41
2019-01-27T02:33:55.186Z,81.23
2019-01-27T02:34:55.338Z,80.75
2019-01-27T02:35:55.474Z,81.13
2019-01-27T02:36:55.619Z,81.79
2019-01-27T02:37:55.765Z,80.94
2019-01-27T02:38:55.909Z,80.27
2019-01-27T02:39:56.057Z,80.27
2019-01-27T02:40:56.202Z,80.46
2019-01-27T02:41:56.346Z,80.56
2019-01-27T02:42:56.490Z,81.51
2019-01-27T02:43:56.635Z,81.32
2019-01-27T02:44:56.778Z,81.60
2019-01-27T02:45:56.925Z,80.84
2019-01-27T02:46:57.070Z,80.84
2019-01-27T02:47:57.217Z,80.37
2019-01-27T02:48:57.362Z,79.99
2019-01-27T02:49:57.506Z,80.18
2019-01-27T02:50:57.686Z,79.23
2019-01-27T02:51:57.800Z,79.61
2019-01-27T02:52:57.937Z,80.27
2019-01-27T02:53:58.080Z,80.56
2019-01-27T02:54:58.226Z,80.65
2019-01-27T02:55:58.372Z,80.18
2019-01-27T02:56:58.514Z,80.65
2019-01-27T02:57:58.660Z,80.56
2019-01-27T02:58:58.806Z,81.32
2019-01-27T02:59:58.949Z,80.94
2019-01-27T03:00:59.095Z,80.65
2019-01-27T03:01:59.239Z,81.32
2019-01-27T03:02:59.385Z,80.94
2019-01-27T03:03:59.527Z,80.75
2019-01-27T03:04:59.674Z,80.84
2019-01-27T03:05:59.816Z,80.65
2019-01-27T03:06:59.966Z,80.46
2019-01-27T03:08:00.107Z,80.46
2019-01-27T03:09:00.255Z,80.08
2019-01-27T03:10:00.401Z,80.08
2019-01-27T03:11:00.545Z,80.27
2019-01-27T03:12:00.689Z,80.08
2019-01-27T03:13:00.837Z,80.65
2019-01-27T03:14:00.981Z,80.65
2019-01-27T03:15:01.126Z,80.46
2019-01-27T03:16:01.267Z,80.56
2019-01-27T03:17:01.411Z,80.18
2019-01-27T03:18:01.558Z,79.61
2019-01-27T03:19:01.702Z,80.27
2019-01-27T03:20:01.846Z,80.18
2019-01-27T03:21:01.991Z,79.61
2019-01-27T03:22:02.139Z,79.99
2019-01-27T03:23:02.285Z,80.84
2019-01-27T03:24:02.439Z,80.46
2019-01-27T03:25:02.578Z,80.27
2019-01-27T03:26:02.721Z,80.46
2019-01-27T03:27:02.866Z,79.33
2019-01-27T03:28:03.013Z,79.14
2019-01-27T03:29:03.158Z,78.85
2019-01-27T03:30:03.306Z,78.19
2019-01-27T03:31:03.459Z,78.38
2019-01-27T03:32:03.615Z,77.14
2019-01-27T03:33:03.742Z,76.86
2019-01-27T03:34:03.892Z,76.76
2019-01-27T03:35:04.030Z,76.29
2019-01-27T03:36:04.178Z,75.24
2019-01-27T03:37:04.320Z,74.96
2019-01-27T03:38:04.467Z,75.24
2019-01-27T03:39:04.610Z,74.87
2019-01-27T03:40:04.761Z,74.96
2019-01-27T03:41:04.901Z,74.68
2019-01-27T03:42:05.048Z,74.87
2019-01-27T03:43:05.191Z,74.77
2019-01-27T03:44:05.335Z,74.96
2019-01-27T03:45:05.486Z,74.68
2019-01-27T03:46:05.629Z,74.11
2019-01-27T03:47:05.773Z,74.20
2019-01-27T03:48:05.917Z,74.87
2019-01-27T03:49:06.065Z,75.34
2019-01-27T03:50:06.215Z,74.87
2019-01-27T03:51:06.358Z,75.43
2019-01-27T03:52:06.504Z,75.05
2019-01-27T03:53:06.647Z,75.34
2019-01-27T03:54:06.795Z,74.87
2019-01-27T03:55:06.939Z,75.43
2019-01-27T03:56:07.084Z,75.24
2019-01-27T03:57:07.230Z,74.96
2019-01-27T03:58:07.375Z,75.34
2019-01-27T03:59:07.520Z,74.96
2019-01-27T04:00:07.666Z,75.15
2019-01-27T04:01:07.811Z,75.05
2019-01-27T04:02:07.956Z,75.72
2019-01-27T04:03:08.100Z,75.43
2019-01-27T04:04:08.249Z,74.96
2019-01-27T04:05:08.390Z,74.96
2019-01-27T04:06:08.585Z,74.77
2019-01-27T04:07:08.682Z,74.77
2019-01-27T04:08:08.824Z,75.34
2019-01-27T04:09:08.974Z,75.34
2019-01-27T04:10:09.114Z,74.77
2019-01-27T04:11:09.254Z,74.49
2019-01-27T04:12:09.397Z,75.15
2019-01-27T04:13:09.632Z,74.87
2019-01-27T04:14:09.703Z,74.30
2019-01-27T04:15:09.846Z,74.30
2019-01-27T04:16:09.993Z,73.35
2019-01-27T04:17:10.137Z,73.44
2019-01-27T04:18:10.284Z,72.49
2019-01-27T04:19:10.429Z,72.78
2019-01-27T04:20:10.574Z,72.21
2019-01-27T04:21:10.718Z,71.83
2019-01-27T04:22:10.862Z,70.98
2019-01-27T04:23:11.006Z,71.64
2019-01-27T04:24:11.149Z,71.55
2019-01-27T04:25:11.295Z,70.69
2019-01-27T04:26:11.443Z,71.64
2019-01-27T04:27:11.584Z,70.40
2019-01-27T04:28:11.728Z,71.07
2019-01-27T04:29:11.874Z,70.03
2019-01-27T04:30:12.020Z,68.70
2019-01-27T04:31:12.174Z,68.60
2019-01-27T04:32:12.307Z,67.94
2019-01-27T04:33:12.454Z,67.94
2019-01-27T04:34:12.597Z,68.04
2019-01-27T04:35:12.744Z,66.52
2019-01-27T04:36:12.887Z,67.27
2019-01-27T04:37:13.034Z,66.52
2019-01-27T04:38:13.176Z,66.33
2019-01-27T04:39:13.326Z,65.37
2019-01-27T04:40:13.468Z,64.62
2019-01-27T04:41:13.613Z,64.43
2019-01-27T04:42:13.756Z,63.20
2019-01-27T04:43:13.911Z,63.57
2019-01-27T04:44:14.046Z,63.20
2019-01-27T04:45:14.192Z,64.33
2019-01-27T04:46:14.337Z,62.15
2019-01-27T04:47:14.484Z,62.82
2019-01-27T04:48:14.634Z,62.34
2019-01-27T04:49:14.784Z,61.96
2019-01-27T04:50:14.938Z,62.05
2019-01-27T04:51:15.064Z,62.24
2019-01-27T04:52:15.209Z,61.39
2019-01-27T04:53:15.351Z,60.53
2019-01-27T04:54:15.497Z,61.49
2019-01-27T04:55:15.655Z,60.44
2019-01-27T04:56:15.789Z,61.30
2019-01-27T04:57:15.931Z,59.88
2019-01-27T04:58:16.078Z,62.05
2019-01-27T04:59:16.225Z,61.11
2019-01-27T05:00:16.368Z,61.01
2019-01-27T05:01:16.513Z,60.06
2019-01-27T05:02:16.660Z,62.62
2019-01-27T05:03:16.805Z,62.05
2019-01-27T05:04:16.951Z,60.92
2019-01-27T05:05:17.096Z,59.88
2019-01-27T05:06:17.240Z,61.01
2019-01-27T05:07:17.384Z,62.24
2019-01-27T05:08:17.530Z,61.01
2019-01-27T05:09:17.673Z,59.30
2019-01-27T05:10:17.817Z,58.83
2019-01-27T05:11:17.962Z,59.97
2019-01-27T05:12:18.109Z,58.92
2019-01-27T05:13:18.253Z,59.88
2019-01-27T05:14:18.398Z,59.49
2019-01-27T05:15:18.547Z,60.82
2019-01-27T05:16:18.694Z,59.68
2019-01-27T05:17:18.838Z,59.21
2019-01-27T05:18:18.984Z,59.11
2019-01-27T05:19:19.128Z,58.73
2019-01-27T05:20:19.271Z,59.59
2019-01-27T05:21:19.418Z,58.92
2019-01-27T05:22:19.566Z,59.78
2019-01-27T05:23:19.708Z,59.88
2019-01-27T05:24:19.853Z,60.92
2019-01-27T05:25:20.001Z,61.39
2019-01-27T05:26:20.151Z,59.88
2019-01-27T05:27:20.291Z,58.73
2019-01-27T05:28:20.439Z,57.88
2019-01-27T05:29:20.585Z,57.76
2019-01-27T05:30:20.744Z,57.57
2019-01-27T05:31:20.871Z,59.02
2019-01-27T05:32:21.018Z,58.45
2019-01-27T05:33:21.165Z,56.55
2019-01-27T05:34:21.310Z,56.46
2019-01-27T05:35:21.454Z,56.84
2019-01-27T05:36:21.600Z,56.74
2019-01-27T05:37:21.749Z,56.65
2019-01-27T05:38:21.902Z,57.28
2019-01-27T05:39:22.038Z,58.45
2019-01-27T05:40:22.196Z,58.17
2019-01-27T05:41:22.330Z,59.27
2019-01-27T05:42:22.475Z,59.18
2019-01-27T05:43:22.620Z,58.42
2019-01-27T05:44:22.765Z,57.09
2019-01-27T05:45:22.911Z,60.60
2019-01-27T05:46:23.054Z,58.51
2019-01-27T05:47:23.200Z,58.70
2019-01-27T05:48:23.349Z,58.42
2019-01-27T05:49:23.494Z,58.14
2019-01-27T05:50:23.635Z,57.38
2019-01-27T05:51:23.784Z,56.62
2019-01-27T05:52:23.929Z,56.52
2019-01-27T05:53:24.070Z,56.43
2019-01-27T05:54:24.217Z,55.96
2019-01-27T05:55:24.364Z,56.52
2019-01-27T05:56:24.510Z,55.96
2019-01-27T05:57:24.654Z,57.47
2019-01-27T05:58:24.801Z,56.05
2019-01-27T05:59:24.946Z,56.34
2019-01-27T06:00:25.091Z,55.29
2019-01-27T06:01:25.237Z,56.52
2019-01-27T06:02:25.380Z,56.81
2019-01-27T06:03:25.526Z,56.52
2019-01-27T06:04:25.674Z,55.86
2019-01-27T06:05:25.817Z,55.19
2019-01-27T06:06:25.962Z,55.67
2019-01-27T06:07:26.106Z,56.52
2019-01-27T06:08:26.254Z,56.15
2019-01-27T06:09:26.397Z,55.86
2019-01-27T06:10:26.543Z,56.15
2019-01-27T06:11:26.689Z,57.28
2019-01-27T06:12:26.834Z,58.61
2019-01-27T06:13:26.978Z,58.23
2019-01-27T06:14:28.026Z,58.23
2019-01-27T06:15:27.268Z,57.95
2019-01-27T06:16:27.411Z,59.56
2019-01-27T06:17:27.556Z,57.38
2019-01-27T06:18:27.703Z,57.09
2019-01-27T06:19:27.848Z,58.51
2019-01-27T06:20:27.994Z,56.99
2019-01-27T06:21:28.139Z,57.76
2019-01-27T06:22:28.284Z,56.43
2019-01-27T06:23:28.427Z,56.34
2019-01-27T06:24:28.575Z,56.43
2019-01-27T06:25:28.725Z,56.43
2019-01-27T06:26:28.866Z,57.38
2019-01-27T06:27:29.040Z,56.43
2019-01-27T06:28:29.155Z,55.60
2019-01-27T06:29:29.301Z,56.24
2019-01-27T06:30:29.444Z,55.76
2019-01-27T06:31:29.589Z,56.52
2019-01-27T06:32:29.736Z,56.52
2019-01-27T06:33:29.881Z,55.96
2019-01-27T06:34:30.061Z,54.72
2019-01-27T06:35:30.173Z,55.19
2019-01-27T06:36:30.314Z,54.91
2019-01-27T06:37:30.458Z,55.19
2019-01-27T06:38:30.605Z,56.34
2019-01-27T06:39:30.753Z,55.76
2019-01-27T06:40:30.897Z,55.48
2019-01-27T06:41:31.039Z,54.91
2019-01-27T06:42:31.186Z,55.96
2019-01-27T06:43:31.329Z,55.98
2019-01-27T06:44:31.474Z,55.60
2019-01-27T06:45:31.617Z,54.94
2019-01-27T06:46:31.763Z,54.08
2019-01-27T06:47:31.905Z,55.70
2019-01-27T06:48:32.056Z,55.41
2019-01-27T06:49:32.199Z,54.08
2019-01-27T06:50:32.347Z,54.37
2019-01-27T06:51:32.491Z,54.85
2019-01-27T06:52:32.634Z,54.85
2019-01-27T06:53:32.782Z,54.85
2019-01-27T06:54:32.927Z,54.37
2019-01-27T06:55:33.071Z,54.75
2019-01-27T06:56:33.215Z,54.66
2019-01-27T06:57:33.366Z,54.56
2019-01-27T06:58:33.510Z,54.85
2019-01-27T06:59:33.653Z,55.41
2019-01-27T07:00:33.801Z,54.85
2019-01-27T07:01:33.947Z,55.04
2019-01-27T07:02:34.091Z,55.41
2019-01-27T07:03:34.235Z,55.89
2019-01-27T07:04:34.381Z,56.46
2019-01-27T07:05:34.529Z,57.03
2019-01-27T07:06:34.677Z,56.36
2019-01-27T07:07:34.822Z,55.70
2019-01-27T07:08:34.967Z,56.27
2019-01-27T07:09:35.116Z,55.98
2019-01-27T07:10:35.268Z,55.98
2019-01-27T07:11:35.405Z,57.79
2019-01-27T07:12:35.551Z,57.98
2019-01-27T07:13:35.697Z,57.79
2019-01-27T07:14:35.842Z,57.40
2019-01-27T07:15:35.987Z,57.12
2019-01-27T07:16:36.133Z,57.40
2019-01-27T07:17:36.284Z,57.50
2019-01-27T07:18:36.427Z,57.12
2019-01-27T07:19:36.571Z,57.21
2019-01-27T07:20:36.724Z,58.36
2019-01-27T07:21:36.863Z,58.07
2019-01-27T07:22:37.009Z,57.31
2019-01-27T07:23:37.156Z,57.31
2019-01-27T07:24:37.300Z,57.40
2019-01-27T07:25:37.445Z,57.40
2019-01-27T07:26:37.592Z,56.93
2019-01-27T07:27:37.738Z,55.98
2019-01-27T07:28:37.883Z,56.08
2019-01-27T07:29:38.027Z,56.55
2019-01-27T07:30:38.170Z,56.17
2019-01-27T07:31:38.314Z,55.70
2019-01-27T07:32:38.463Z,56.27
2019-01-27T07:33:38.609Z,56.27
2019-01-27T07:34:38.752Z,56.08
2019-01-27T07:35:38.899Z,55.98
2019-01-27T07:36:39.044Z,55.51
2019-01-27T07:37:39.191Z,55.41
2019-01-27T07:38:39.336Z,55.89
2019-01-27T07:39:39.481Z,56.17
2019-01-27T07:40:39.629Z,57.21
2019-01-27T07:41:39.774Z,57.88
2019-01-27T07:42:39.922Z,57.12
2019-01-27T07:43:40.066Z,58.54
2019-01-27T07:44:40.214Z,57.50
2019-01-27T07:45:40.362Z,58.92
2019-01-27T07:46:40.505Z,58.92
2019-01-27T07:47:40.651Z,59.30
2019-01-27T07:48:40.796Z,58.92
2019-01-27T07:49:40.940Z,59.40
2019-01-27T07:50:41.086Z,59.11
2019-01-27T07:51:41.232Z,59.11
2019-01-27T07:52:41.378Z,59.78
2019-01-27T07:53:41.526Z,58.83
2019-01-27T07:54:41.673Z,58.64
2019-01-27T07:55:41.817Z,59.21
2019-01-27T07:56:41.964Z,59.30
2019-01-27T07:57:42.112Z,58.45
2019-01-27T07:58:42.254Z,58.83
2019-01-27T07:59:42.399Z,57.50
2019-01-27T08:00:42.569Z,56.74
2019-01-27T08:01:42.689Z,58.54
2019-01-27T08:02:42.834Z,58.17
2019-01-27T08:03:42.980Z,58.92
2019-01-27T08:04:43.126Z,58.83
2019-01-27T08:05:43.273Z,58.92
2019-01-27T08:06:43.419Z,58.45
2019-01-27T08:07:43.560Z,58.36
2019-01-27T08:08:43.708Z,60.35
2019-01-27T08:09:43.851Z,62.05
2019-01-27T08:10:43.997Z,62.34
2019-01-27T08:11:44.144Z,61.49
2019-01-27T08:12:44.289Z,61.01
2019-01-27T08:13:44.436Z,63.48
2019-01-27T08:14:44.582Z,61.80
2019-01-27T08:15:44.727Z,61.96
2019-01-27T08:16:44.872Z,62.05
2019-01-27T08:17:45.020Z,61.14
2019-01-27T08:18:45.167Z,61.52
2019-01-27T08:19:45.310Z,61.61
2019-01-27T08:20:45.455Z,62.05
2019-01-27T08:21:45.602Z,61.96
2019-01-27T08:22:45.749Z,63.10
2019-01-27T08:23:45.896Z,62.66
2019-01-27T08:24:46.040Z,62.18
2019-01-27T08:25:46.184Z,65.75
2019-01-27T08:26:46.331Z,65.60
2019-01-27T08:27:46.476Z,65.60
2019-01-27T08:28:46.624Z,66.23
2019-01-27T08:29:46.770Z,65.56
2019-01-27T08:30:46.918Z,65.75
2019-01-27T08:31:47.063Z,64.75
2019-01-27T08:32:47.207Z,63.23
2019-01-27T08:33:47.355Z,63.86
2019-01-27T08:34:47.501Z,65.31
2019-01-27T08:35:47.649Z,64.75
2019-01-27T08:36:47.793Z,65.88
2019-01-27T08:37:47.940Z,66.36
2019-01-27T08:38:48.083Z,67.59
2019-01-27T08:39:48.232Z,67.59
2019-01-27T08:40:48.379Z,66.27
2019-01-27T08:41:48.568Z,67.88
2019-01-27T08:42:48.663Z,66.64
2019-01-27T08:43:48.806Z,65.60
2019-01-27T08:44:48.952Z,64.94
2019-01-27T08:45:49.102Z,65.60
2019-01-27T08:46:49.246Z,65.12
2019-01-27T08:47:49.393Z,65.12
2019-01-27T08:48:49.542Z,65.50
2019-01-27T08:49:49.691Z,66.17
2019-01-27T08:50:49.834Z,67.97
2019-01-27T08:51:49.983Z,68.54
2019-01-27T08:52:50.128Z,70.73
2019-01-27T08:53:50.271Z,69.87
2019-01-27T08:54:50.421Z,72.63
2019-01-27T08:55:50.566Z,72.34
2019-01-27T08:56:50.712Z,71.86
2019-01-27T08:57:50.856Z,72.53
2019-01-27T08:58:50.999Z,74.15
2019-01-27T08:59:51.148Z,76.23
2019-01-27T09:00:51.294Z,76.04
2019-01-27T09:01:51.442Z,76.14
2019-01-27T09:02:51.648Z,77.28
2019-01-27T09:03:51.726Z,76.80
2019-01-27T09:04:51.872Z,77.09
2019-01-27T09:05:52.020Z,78.32
2019-01-27T09:06:52.170Z,76.61
2019-01-27T09:07:52.303Z,76.52
2019-01-27T09:08:52.450Z,77.47
2019-01-27T09:09:52.594Z,77.09
2019-01-27T09:10:52.734Z,75.57
2019-01-27T09:11:52.879Z,75.67
2019-01-27T09:12:53.025Z,74.71
2019-01-27T09:13:53.170Z,76.61
2019-01-27T09:14:53.322Z,76.04
2019-01-27T09:15:53.464Z,76.32
2019-01-27T09:16:53.611Z,76.52
2019-01-27T09:17:53.758Z,77.09
2019-01-27T09:18:53.908Z,77.09
2019-01-27T09:19:54.054Z,80.51
2019-01-27T09:20:54.203Z,78.42
2019-01-27T09:21:54.357Z,77.84
2019-01-27T09:22:54.494Z,78.42
2019-01-27T09:23:54.641Z,81.02
2019-01-27T09:24:54.790Z,80.16
2019-01-27T09:25:54.936Z,80.60
2019-01-27T09:26:55.081Z,82.50
2019-01-27T09:27:55.227Z,81.45
2019-01-27T09:28:55.375Z,83.64
2019-01-27T09:29:55.520Z,81.26
2019-01-27T09:30:55.666Z,83.36
2019-01-27T09:31:55.813Z,81.65
2019-01-27T09:32:55.960Z,83.45
2019-01-27T09:33:56.108Z,84.11
2019-01-27T09:34:56.254Z,83.07
2019-01-27T09:35:56.399Z,83.78
2019-01-27T09:36:56.549Z,85.25
2019-01-27T09:37:56.694Z,85.86
2019-01-27T09:38:56.839Z,85.91
2019-01-27T09:39:57.046Z,85.86
2019-01-27T09:40:57.142Z,84.97
2019-01-27T09:41:57.289Z,85.49
2019-01-27T09:42:57.435Z,85.86
2019-01-27T09:43:57.587Z,88.53
2019-01-27T09:44:57.732Z,88.24
2019-01-27T09:46:05.956Z,87.19
2019-01-27T09:46:58.024Z,86.82
2019-01-27T09:47:58.172Z,86.82
2019-01-27T09:48:58.322Z,87.57
2019-01-27T09:49:58.465Z,88.05
2019-01-27T09:50:58.612Z,87.01
2019-01-27T09:51:58.762Z,86.34
2019-01-27T09:52:58.907Z,87.10
2019-01-27T09:53:59.055Z,86.72
2019-01-27T09:54:59.198Z,87.29
2019-01-27T09:55:59.347Z,87.67
2019-01-27T09:56:59.494Z,88.24
2019-01-27T09:57:59.638Z,87.67
2019-01-27T09:58:59.788Z,88.53
2019-01-27T09:59:59.934Z,89.76
2019-01-27T10:01:00.079Z,88.81
2019-01-27T10:02:00.239Z,88.53
2019-01-27T10:03:00.385Z,87.67
2019-01-27T10:04:00.543Z,90.99
2019-01-27T10:05:00.688Z,89.09
2019-01-27T10:06:00.834Z,88.53
2019-01-27T10:07:00.980Z,91.28
2019-01-27T10:08:01.133Z,89.86
2019-01-27T10:09:01.283Z,89.95
2019-01-27T10:10:01.430Z,91.66
2019-01-27T10:11:01.580Z,90.52
2019-01-27T10:12:01.724Z,91.47
2019-01-27T10:13:01.872Z,92.23
2019-01-27T10:14:02.016Z,92.90
2019-01-27T10:15:02.168Z,91.28
2019-01-27T10:16:02.312Z,90.05
2019-01-27T10:17:02.463Z,91.75
2019-01-27T10:18:02.613Z,92.51
2019-01-27T10:19:02.771Z,93.84
2019-01-27T10:20:02.927Z,92.61
2019-01-27T10:21:03.073Z,91.47
2019-01-27T10:22:03.218Z,91.56
2019-01-27T10:23:03.372Z,93.27
2019-01-27T10:24:03.524Z,92.42
2019-01-27T10:25:03.675Z,93.27
2019-01-27T10:26:03.821Z,91.66
2019-01-27T10:27:03.974Z,91.28
2019-01-27T10:28:04.129Z,92.32
2019-01-27T10:29:04.292Z,93.27
2019-01-27T10:30:04.451Z,92.42
2019-01-27T10:31:04.599Z,92.32
2019-01-27T10:32:04.746Z,91.56
2019-01-27T10:33:04.897Z,91.94
2019-01-27T10:34:05.047Z,92.61
2019-01-27T10:35:05.189Z,92.51
2019-01-27T10:36:05.337Z,92.90
2019-01-27T10:37:11.868Z,93.84
2019-01-27T10:38:05.630Z,94.98
2019-01-27T10:39:05.776Z,95.46
2019-01-27T10:40:09.254Z,95.75
2019-01-27T10:41:06.071Z,94.70
2019-01-27T10:42:06.217Z,94.79
2019-01-27T10:43:06.367Z,93.27
2019-01-27T10:44:06.517Z,95.27
2019-01-27T10:45:06.663Z,95.75
2019-01-27T10:46:06.808Z,95.65
2019-01-27T10:47:06.960Z,96.03
2019-01-27T10:48:07.108Z,95.84
2019-01-27T10:49:07.261Z,94.70
2019-01-27T10:50:07.403Z,95.27
2019-01-27T10:51:07.551Z,96.41
2019-01-27T10:52:07.698Z,96.08
2019-01-27T10:53:07.847Z,96.50
2019-01-27T10:54:07.989Z,96.12
2019-01-27T10:55:08.142Z,95.65
2019-01-27T10:56:08.292Z,95.65
2019-01-27T10:57:08.438Z,96.41
2019-01-27T10:58:08.587Z,95.36
2019-01-27T10:59:08.735Z,96.22
2019-01-27T11:00:08.884Z,96.08
2019-01-27T11:01:09.038Z,96.88
2019-01-27T11:02:09.198Z,96.84
2019-01-27T11:03:09.332Z,96.26
2019-01-27T11:04:09.478Z,97.55
2019-01-27T11:05:09.632Z,96.22
2019-01-27T11:06:09.782Z,95.55
2019-01-27T11:07:09.932Z,95.75
2019-01-27T11:08:10.142Z,94.03
2019-01-27T11:09:10.232Z,95.84
2019-01-27T11:10:10.379Z,95.75
2019-01-27T11:11:10.529Z,94.60
2019-01-27T11:12:10.678Z,95.75
2019-01-27T11:13:10.826Z,93.56
2019-01-27T11:14:10.972Z,95.08
2019-01-27T11:15:11.121Z,94.79
2019-01-27T11:16:11.267Z,96.31
2019-01-27T11:17:11.416Z,96.12
2019-01-27T11:18:11.564Z,96.12
2019-01-27T11:19:11.719Z,96.50
2019-01-27T11:20:11.871Z,95.46
2019-01-27T11:21:12.038Z,96.41
2019-01-27T11:22:12.184Z,95.27
2019-01-27T11:23:12.315Z,96.41
2019-01-27T11:24:12.478Z,95.55
2019-01-27T11:25:12.885Z,95.94
2019-01-27T11:26:12.767Z,96.50
2019-01-27T11:27:12.915Z,99.64
2019-01-27T11:28:13.079Z,96.60
2019-01-27T11:29:13.227Z,97.55
2019-01-27T11:30:13.388Z,97.07
2019-01-27T11:31:13.538Z,98.69
2019-01-27T11:32:13.688Z,99.99
2019-01-27T11:33:13.834Z,99.99
2019-01-27T11:34:13.982Z,99.30
2019-01-27T11:35:14.129Z,99.88
2019-01-27T11:36:14.276Z,99.88
2019-01-27T11:37:14.424Z,98.83
2019-01-27T11:38:14.577Z,99.99
2019-01-27T11:39:14.725Z,98.31
2019-01-27T11:40:14.879Z,96.88
2019-01-27T11:41:15.030Z,98.40
2019-01-27T11:42:15.188Z,97.27
2019-01-27T11:43:15.342Z,96.79
2019-01-27T11:44:15.485Z,96.98
2019-01-27T11:45:15.633Z,97.64
2019-01-27T11:46:15.781Z,96.12
2019-01-27T11:47:15.966Z,96.03
2019-01-27T11:48:16.118Z,95.08
2019-01-27T11:49:16.317Z,98.31
2019-01-27T11:50:16.501Z,99.99
2019-01-27T11:51:16.726Z,99.54
2019-01-27T11:52:16.765Z,99.99
2019-01-27T11:53:16.959Z,99.99
2019-01-27T11:54:17.103Z,99.99
2019-01-27T11:55:18.710Z,99.99
2019-01-27T11:56:17.425Z,99.99
2019-01-27T11:57:17.571Z,99.99
2019-01-27T11:58:17.730Z,99.99
2019-01-27T11:59:17.877Z,99.99
2019-01-27T12:00:18.027Z,99.99
2019-01-27T12:01:18.175Z,99.99
2019-01-27T12:02:18.371Z,99.99
2019-01-27T12:03:18.521Z,99.99
2019-01-27T12:04:18.678Z,99.99
2019-01-27T12:05:18.828Z,99.99
2019-01-27T12:06:18.975Z,99.99
2019-01-27T12:07:19.132Z,99.99
2019-01-27T12:08:19.282Z,99.99
2019-01-27T12:09:19.433Z,99.99
2019-01-27T12:10:19.598Z,99.99
2019-01-27T12:11:19.751Z,99.99
2019-01-27T12:12:19.915Z,99.99
2019-01-27T12:13:20.063Z,99.99
2019-01-27T12:14:20.208Z,99.99
2019-01-27T12:15:20.356Z,99.99
2019-01-27T12:16:20.507Z,99.99
2019-01-27T12:17:20.673Z,99.99
2019-01-27T12:18:20.824Z,99.99
2019-01-27T12:19:20.973Z,99.99
2019-01-27T12:20:21.125Z,99.99
2019-01-27T12:21:21.318Z,99.99
2019-01-27T12:22:21.415Z,99.99
2019-01-27T12:23:21.562Z,99.99
2019-01-27T12:24:21.717Z,99.99
2019-01-27T12:25:21.875Z,99.99
2019-01-27T12:26:22.026Z,99.99
2019-01-27T12:27:22.179Z,99.99
2019-01-27T12:28:22.320Z,99.99
2019-01-27T12:29:22.476Z,99.99
2019-01-27T12:30:22.628Z,99.99
2019-01-27T12:31:22.780Z,99.99
2019-01-27T12:32:22.966Z,99.99
2019-01-27T12:33:23.129Z,99.99
2019-01-27T12:34:23.278Z,99.99
2019-01-27T12:35:23.426Z,99.99
2019-01-27T12:36:23.582Z,99.99
2019-01-27T12:37:23.734Z,99.99
2019-01-27T12:38:23.903Z,99.99
2019-01-27T12:39:24.049Z,99.99
2019-01-27T12:40:24.204Z,99.99
2019-01-27T12:41:24.397Z,99.99
2019-01-27T12:42:24.550Z,99.99
2019-01-27T12:43:24.696Z,99.99
2019-01-27T12:44:24.854Z,99.99
2019-01-27T12:45:25.015Z,99.99
2019-01-27T12:46:25.213Z,99.99
2019-01-27T12:47:25.360Z,99.99
2019-01-27T12:48:25.512Z,99.99
2019-01-27T12:49:25.672Z,99.99
2019-01-27T12:50:25.822Z,99.99
2019-01-27T12:51:25.974Z,99.99
2019-01-27T12:52:26.120Z,99.99
2019-01-27T12:53:26.270Z,99.99
2019-01-27T12:54:26.415Z,99.99